Aviation Digital Data Service (ADDS)

Output produced by TAFs form (1249 UTC 30 May 2017)
found at http://aviationweather.gov/adds/tafs/
 
KLND 301120Z 3012/3112 VRB05KT P6SM SCT100 
     FM302100 VRB06KT P6SM VCTS SCT080CB BKN120 
     FM310200 VRB05KT P6SM VCSH FEW080 BKN110 
     FM310500 VRB05KT P6SM SCT110